Seattle, Washington
Traffic Map
Current Weather Conditions
Seattle, Washington
Clear
Clear
26°
Feels Like: 26°
Wind Chill: 26° Ceiling: Unl
Heat Index: 26° Visibility: 10mi
Dew Point: Wind: 3mph
Humidity: 33% Direction: ° ()
Pressure: 29.91in Gusts: 0mph
Raw Report DataKBFI 020553Z VRB03KT 10SM CLR 26/08 A2991 RMK AO2 SLP128 T02560083 10328 20256 51007
Traffic Incident Summary
Active as of:
Severity:
Category:
InformationThere was an issue retrieving the traffic information for this location. Please try a different location or try again shortly.
Advertisements
Track Severe Weather on mobile